sensor_id;sensor_type;location;lat;lon;timestamp;temperature;humidity
12874;DHT22;6505;51.114;13.128;2023-03-31T00:01:07;16.70;60.20
12874;DHT22;6505;51.114;13.128;2023-03-31T00:03:37;16.70;60.10
12874;DHT22;6505;51.114;13.128;2023-03-31T00:06:11;16.70;60.30
12874;DHT22;6505;51.114;13.128;2023-03-31T00:08:46;16.70;60.40
12874;DHT22;6505;51.114;13.128;2023-03-31T00:11:18;16.70;60.00
12874;DHT22;6505;51.114;13.128;2023-03-31T00:13:47;16.70;60.30
12874;DHT22;6505;51.114;13.128;2023-03-31T00:16:16;16.70;60.20
12874;DHT22;6505;51.114;13.128;2023-03-31T00:18:45;16.70;60.40
12874;DHT22;6505;51.114;13.128;2023-03-31T00:21:18;16.60;60.30
12874;DHT22;6505;51.114;13.128;2023-03-31T00:23:56;16.70;60.60
12874;DHT22;6505;51.114;13.128;2023-03-31T00:26:25;16.70;60.60
12874;DHT22;6505;51.114;13.128;2023-03-31T00:28:54;16.70;60.30
12874;DHT22;6505;51.114;13.128;2023-03-31T00:31:22;16.70;60.70
12874;DHT22;6505;51.114;13.128;2023-03-31T00:33:51;16.70;60.60
12874;DHT22;6505;51.114;13.128;2023-03-31T00:36:21;16.70;60.60
12874;DHT22;6505;51.114;13.128;2023-03-31T00:38:53;16.70;60.60
12874;DHT22;6505;51.114;13.128;2023-03-31T00:41:22;16.70;60.60
12874;DHT22;6505;51.114;13.128;2023-03-31T00:44:04;16.70;60.70
12874;DHT22;6505;51.114;13.128;2023-03-31T00:46:37;16.70;60.90
12874;DHT22;6505;51.114;13.128;2023-03-31T00:49:18;16.70;60.80
12874;DHT22;6505;51.114;13.128;2023-03-31T00:51:53;16.70;60.80
12874;DHT22;6505;51.114;13.128;2023-03-31T00:54:24;16.70;60.70
12874;DHT22;6505;51.114;13.128;2023-03-31T00:56:54;16.70;60.70
12874;DHT22;6505;51.114;13.128;2023-03-31T00:59:32;16.70;60.70
12874;DHT22;6505;51.114;13.128;2023-03-31T01:02:03;16.70;60.70
12874;DHT22;6505;51.114;13.128;2023-03-31T01:04:37;16.70;60.60
12874;DHT22;6505;51.114;13.128;2023-03-31T01:07:12;16.70;60.60
12874;DHT22;6505;51.114;13.128;2023-03-31T01:09:45;16.70;60.60
12874;DHT22;6505;51.114;13.128;2023-03-31T01:12:16;16.70;60.50
12874;DHT22;6505;51.114;13.128;2023-03-31T01:14:45;16.70;60.50
12874;DHT22;6505;51.114;13.128;2023-03-31T01:17:13;16.70;60.40
12874;DHT22;6505;51.114;13.128;2023-03-31T01:20:01;16.70;60.40
12874;DHT22;6505;51.114;13.128;2023-03-31T01:23:03;16.70;60.60
12874;DHT22;6505;51.114;13.128;2023-03-31T01:25:54;16.70;60.50
12874;DHT22;6505;51.114;13.128;2023-03-31T01:28:49;16.70;60.60
12874;DHT22;6505;51.114;13.128;2023-03-31T01:31:57;16.60;60.50
12874;DHT22;6505;51.114;13.128;2023-03-31T01:34:57;16.70;60.70
12874;DHT22;6505;51.114;13.128;2023-03-31T01:41:00;16.70;60.60
12874;DHT22;6505;51.114;13.128;2023-03-31T01:43:44;16.60;60.50
12874;DHT22;6505;51.114;13.128;2023-03-31T01:46:22;16.70;60.60
12874;DHT22;6505;51.114;13.128;2023-03-31T01:49:02;16.70;60.60
12874;DHT22;6505;51.114;13.128;2023-03-31T01:51:44;16.70;60.60
12874;DHT22;6505;51.114;13.128;2023-03-31T01:54:22;16.60;60.50
12874;DHT22;6505;51.114;13.128;2023-03-31T01:57:02;16.70;60.70
12874;DHT22;6505;51.114;13.128;2023-03-31T01:59:43;16.70;60.70
12874;DHT22;6505;51.114;13.128;2023-03-31T02:02:19;16.70;60.70
12874;DHT22;6505;51.114;13.128;2023-03-31T02:04:55;16.60;60.50
12874;DHT22;6505;51.114;13.128;2023-03-31T02:07:32;16.60;60.50
12874;DHT22;6505;51.114;13.128;2023-03-31T02:10:06;16.60;60.50
12874;DHT22;6505;51.114;13.128;2023-03-31T02:12:39;16.70;60.50
12874;DHT22;6505;51.114;13.128;2023-03-31T02:15:12;16.70;60.50
12874;DHT22;6505;51.114;13.128;2023-03-31T02:17:45;16.70;60.50
12874;DHT22;6505;51.114;13.128;2023-03-31T02:20:18;16.70;60.50
12874;DHT22;6505;51.114;13.128;2023-03-31T02:22:51;16.70;60.40
12874;DHT22;6505;51.114;13.128;2023-03-31T02:25:24;16.60;60.30
12874;DHT22;6505;51.114;13.128;2023-03-31T02:28:02;16.70;59.90
12874;DHT22;6505;51.114;13.128;2023-03-31T02:30:42;16.70;60.40
12874;DHT22;6505;51.114;13.128;2023-03-31T02:33:15;16.60;60.30
12874;DHT22;6505;51.114;13.128;2023-03-31T02:35:43;16.70;60.10
12874;DHT22;6505;51.114;13.128;2023-03-31T02:38:11;16.60;60.10
12874;DHT22;6505;51.114;13.128;2023-03-31T02:40:39;16.60;60.00
12874;DHT22;6505;51.114;13.128;2023-03-31T02:43:09;16.60;60.10
12874;DHT22;6505;51.114;13.128;2023-03-31T02:45:41;16.60;59.90
12874;DHT22;6505;51.114;13.128;2023-03-31T02:48:15;16.60;60.10
12874;DHT22;6505;51.114;13.128;2023-03-31T02:57:36;16.60;60.30
12874;DHT22;6505;51.114;13.128;2023-03-31T03:00:22;16.50;60.10
12874;DHT22;6505;51.114;13.128;2023-03-31T03:03:09;16.60;60.30
12874;DHT22;6505;51.114;13.128;2023-03-31T03:05:49;16.50;60.30
12874;DHT22;6505;51.114;13.128;2023-03-31T03:09:05;16.50;60.30
12874;DHT22;6505;51.114;13.128;2023-03-31T03:11:45;16.50;60.40
12874;DHT22;6505;51.114;13.128;2023-03-31T03:14:27;16.50;60.50
12874;DHT22;6505;51.114;13.128;2023-03-31T03:17:06;16.50;60.70
12874;DHT22;6505;51.114;13.128;2023-03-31T03:19:37;16.50;60.80
12874;DHT22;6505;51.114;13.128;2023-03-31T03:22:04;16.50;60.60
12874;DHT22;6505;51.114;13.128;2023-03-31T03:24:34;16.50;60.60
12874;DHT22;6505;51.114;13.128;2023-03-31T03:27:02;16.50;60.70
12874;DHT22;6505;51.114;13.128;2023-03-31T03:29:30;16.50;60.90
12874;DHT22;6505;51.114;13.128;2023-03-31T03:31:58;16.50;61.00
12874;DHT22;6505;51.114;13.128;2023-03-31T03:34:27;16.60;61.20
12874;DHT22;6505;51.114;13.128;2023-03-31T03:36:55;16.60;61.20
12874;DHT22;6505;51.114;13.128;2023-03-31T03:39:23;16.60;61.00
12874;DHT22;6505;51.114;13.128;2023-03-31T03:41:51;16.50;60.90
12874;DHT22;6505;51.114;13.128;2023-03-31T03:44:19;16.50;60.90
12874;DHT22;6505;51.114;13.128;2023-03-31T03:46:47;16.60;61.00
12874;DHT22;6505;51.114;13.128;2023-03-31T03:49:15;16.60;61.00
12874;DHT22;6505;51.114;13.128;2023-03-31T03:51:44;16.60;60.90
12874;DHT22;6505;51.114;13.128;2023-03-31T03:54:13;16.50;61.00
12874;DHT22;6505;51.114;13.128;2023-03-31T03:56:41;16.60;61.00
12874;DHT22;6505;51.114;13.128;2023-03-31T03:59:10;16.60;61.00
12874;DHT22;6505;51.114;13.128;2023-03-31T04:01:38;16.60;61.30
12874;DHT22;6505;51.114;13.128;2023-03-31T04:04:06;16.60;61.20
12874;DHT22;6505;51.114;13.128;2023-03-31T04:06:34;16.60;61.10
12874;DHT22;6505;51.114;13.128;2023-03-31T04:09:04;16.60;61.20
12874;DHT22;6505;51.114;13.128;2023-03-31T04:11:32;16.60;61.20
12874;DHT22;6505;51.114;13.128;2023-03-31T04:14:00;16.60;61.10
12874;DHT22;6505;51.114;13.128;2023-03-31T04:16:27;16.60;61.20
12874;DHT22;6505;51.114;13.128;2023-03-31T04:18:56;16.60;61.00
12874;DHT22;6505;51.114;13.128;2023-03-31T04:21:25;16.60;61.00
12874;DHT22;6505;51.114;13.128;2023-03-31T04:23:54;16.60;60.90
12874;DHT22;6505;51.114;13.128;2023-03-31T04:26:29;16.60;60.90
12874;DHT22;6505;51.114;13.128;2023-03-31T04:29:04;16.70;61.00
12874;DHT22;6505;51.114;13.128;2023-03-31T04:31:33;16.60;60.80
12874;DHT22;6505;51.114;13.128;2023-03-31T04:34:04;16.60;60.70
12874;DHT22;6505;51.114;13.128;2023-03-31T04:36:39;16.70;60.90
12874;DHT22;6505;51.114;13.128;2023-03-31T04:39:13;16.60;60.80
12874;DHT22;6505;51.114;13.128;2023-03-31T04:41:43;16.70;61.00
12874;DHT22;6505;51.114;13.128;2023-03-31T04:44:11;16.70;60.80
12874;DHT22;6505;51.114;13.128;2023-03-31T04:46:39;16.70;60.90
12874;DHT22;6505;51.114;13.128;2023-03-31T04:49:07;16.60;60.70
12874;DHT22;6505;51.114;13.128;2023-03-31T04:51:35;16.70;60.80
12874;DHT22;6505;51.114;13.128;2023-03-31T04:54:03;16.70;60.90
12874;DHT22;6505;51.114;13.128;2023-03-31T04:56:31;16.70;60.90
12874;DHT22;6505;51.114;13.128;2023-03-31T04:59:01;16.70;61.00
12874;DHT22;6505;51.114;13.128;2023-03-31T05:01:30;16.70;61.00
12874;DHT22;6505;51.114;13.128;2023-03-31T05:04:02;16.70;61.20
12874;DHT22;6505;51.114;13.128;2023-03-31T05:06:31;16.70;61.50
12874;DHT22;6505;51.114;13.128;2023-03-31T05:08:59;16.70;61.50
12874;DHT22;6505;51.114;13.128;2023-03-31T05:11:27;16.60;61.30
12874;DHT22;6505;51.114;13.128;2023-03-31T05:13:55;16.70;61.40
12874;DHT22;6505;51.114;13.128;2023-03-31T05:16:24;16.70;61.70
12874;DHT22;6505;51.114;13.128;2023-03-31T05:18:53;16.70;62.00
12874;DHT22;6505;51.114;13.128;2023-03-31T05:21:21;16.70;62.10
12874;DHT22;6505;51.114;13.128;2023-03-31T05:23:49;16.70;62.30
12874;DHT22;6505;51.114;13.128;2023-03-31T05:26:18;16.70;62.00
12874;DHT22;6505;51.114;13.128;2023-03-31T05:28:47;16.70;62.50
12874;DHT22;6505;51.114;13.128;2023-03-31T05:31:15;16.70;62.60
12874;DHT22;6505;51.114;13.128;2023-03-31T05:33:45;16.70;62.80
12874;DHT22;6505;51.114;13.128;2023-03-31T05:36:15;16.70;62.90
12874;DHT22;6505;51.114;13.128;2023-03-31T05:38:44;16.70;63.10
12874;DHT22;6505;51.114;13.128;2023-03-31T05:41:13;16.80;63.10
12874;DHT22;6505;51.114;13.128;2023-03-31T05:43:42;16.70;63.10
12874;DHT22;6505;51.114;13.128;2023-03-31T05:46:10;16.80;63.20
12874;DHT22;6505;51.114;13.128;2023-03-31T05:48:38;16.80;63.30
12874;DHT22;6505;51.114;13.128;2023-03-31T05:51:08;16.80;63.50
12874;DHT22;6505;51.114;13.128;2023-03-31T05:53:36;16.70;63.40
12874;DHT22;6505;51.114;13.128;2023-03-31T05:56:05;16.80;63.60
12874;DHT22;6505;51.114;13.128;2023-03-31T05:58:34;16.80;63.80
12874;DHT22;6505;51.114;13.128;2023-03-31T06:01:04;16.80;63.90
12874;DHT22;6505;51.114;13.128;2023-03-31T06:03:35;16.80;63.80
12874;DHT22;6505;51.114;13.128;2023-03-31T06:06:08;16.80;63.90
12874;DHT22;6505;51.114;13.128;2023-03-31T06:08:38;16.80;64.90
12874;DHT22;6505;51.114;13.128;2023-03-31T06:11:07;16.90;64.30
12874;DHT22;6505;51.114;13.128;2023-03-31T06:13:38;16.90;64.90
12874;DHT22;6505;51.114;13.128;2023-03-31T06:16:08;16.90;64.90
12874;DHT22;6505;51.114;13.128;2023-03-31T06:18:38;16.90;64.90
12874;DHT22;6505;51.114;13.128;2023-03-31T06:21:09;17.00;65.00
12874;DHT22;6505;51.114;13.128;2023-03-31T06:23:39;17.00;65.00
12874;DHT22;6505;51.114;13.128;2023-03-31T06:26:07;17.00;64.60
12874;DHT22;6505;51.114;13.128;2023-03-31T06:28:35;17.10;64.30
12874;DHT22;6505;51.114;13.128;2023-03-31T06:31:04;17.20;64.20
12874;DHT22;6505;51.114;13.128;2023-03-31T06:33:34;17.20;64.30
12874;DHT22;6505;51.114;13.128;2023-03-31T06:36:03;17.20;64.30
12874;DHT22;6505;51.114;13.128;2023-03-31T06:38:35;17.20;64.50
12874;DHT22;6505;51.114;13.128;2023-03-31T06:41:04;17.30;64.40
12874;DHT22;6505;51.114;13.128;2023-03-31T06:43:34;17.30;64.10
12874;DHT22;6505;51.114;13.128;2023-03-31T06:46:02;17.40;64.40
12874;DHT22;6505;51.114;13.128;2023-03-31T06:48:30;17.40;64.40
12874;DHT22;6505;51.114;13.128;2023-03-31T06:50:59;17.40;64.50
12874;DHT22;6505;51.114;13.128;2023-03-31T06:53:29;17.40;64.60
12874;DHT22;6505;51.114;13.128;2023-03-31T06:55:59;17.50;64.40
12874;DHT22;6505;51.114;13.128;2023-03-31T06:58:27;17.60;64.40
12874;DHT22;6505;51.114;13.128;2023-03-31T07:00:57;17.60;63.90
12874;DHT22;6505;51.114;13.128;2023-03-31T07:03:25;17.60;63.80
12874;DHT22;6505;51.114;13.128;2023-03-31T07:05:55;17.60;63.70
12874;DHT22;6505;51.114;13.128;2023-03-31T07:08:23;17.70;63.80
12874;DHT22;6505;51.114;13.128;2023-03-31T07:10:54;17.70;63.90
12874;DHT22;6505;51.114;13.128;2023-03-31T07:13:26;17.70;63.90
12874;DHT22;6505;51.114;13.128;2023-03-31T07:15:55;17.80;63.70
12874;DHT22;6505;51.114;13.128;2023-03-31T07:18:23;17.80;64.00
12874;DHT22;6505;51.114;13.128;2023-03-31T07:21:00;17.90;63.90
12874;DHT22;6505;51.114;13.128;2023-03-31T07:23:31;17.90;64.20
12874;DHT22;6505;51.114;13.128;2023-03-31T07:25:59;17.90;64.30
12874;DHT22;6505;51.114;13.128;2023-03-31T07:28:30;18.00;64.00
12874;DHT22;6505;51.114;13.128;2023-03-31T07:30:58;18.00;63.80
12874;DHT22;6505;51.114;13.128;2023-03-31T07:33:26;18.10;63.50
12874;DHT22;6505;51.114;13.128;2023-03-31T07:35:54;18.10;63.20
12874;DHT22;6505;51.114;13.128;2023-03-31T07:38:38;18.20;63.30
12874;DHT22;6505;51.114;13.128;2023-03-31T07:41:09;18.20;63.20
12874;DHT22;6505;51.114;13.128;2023-03-31T07:43:39;18.20;63.10
12874;DHT22;6505;51.114;13.128;2023-03-31T07:46:17;18.30;63.00
12874;DHT22;6505;51.114;13.128;2023-03-31T07:48:46;18.20;63.00
12874;DHT22;6505;51.114;13.128;2023-03-31T07:51:16;18.30;63.20
12874;DHT22;6505;51.114;13.128;2023-03-31T07:53:46;18.40;63.10
12874;DHT22;6505;51.114;13.128;2023-03-31T07:56:18;18.40;62.80
12874;DHT22;6505;51.114;13.128;2023-03-31T07:58:48;18.50;62.60
12874;DHT22;6505;51.114;13.128;2023-03-31T08:01:19;18.50;62.20
12874;DHT22;6505;51.114;13.128;2023-03-31T08:03:51;18.50;62.00
12874;DHT22;6505;51.114;13.128;2023-03-31T08:06:23;18.50;61.90
12874;DHT22;6505;51.114;13.128;2023-03-31T08:08:52;18.50;62.00
12874;DHT22;6505;51.114;13.128;2023-03-31T08:11:20;18.50;61.90
12874;DHT22;6505;51.114;13.128;2023-03-31T08:13:51;18.50;62.10
12874;DHT22;6505;51.114;13.128;2023-03-31T08:16:19;18.60;62.20
12874;DHT22;6505;51.114;13.128;2023-03-31T08:18:47;18.60;62.30
12874;DHT22;6505;51.114;13.128;2023-03-31T08:21:15;18.70;62.30
12874;DHT22;6505;51.114;13.128;2023-03-31T08:23:43;18.70;62.00
12874;DHT22;6505;51.114;13.128;2023-03-31T08:26:12;18.80;61.40
12874;DHT22;6505;51.114;13.128;2023-03-31T08:28:43;18.80;61.30
12874;DHT22;6505;51.114;13.128;2023-03-31T08:31:16;18.90;60.90
12874;DHT22;6505;51.114;13.128;2023-03-31T08:33:46;18.90;60.30
12874;DHT22;6505;51.114;13.128;2023-03-31T08:36:14;18.90;60.00
12874;DHT22;6505;51.114;13.128;2023-03-31T08:38:42;18.90;59.90
12874;DHT22;6505;51.114;13.128;2023-03-31T08:41:25;18.90;60.60
12874;DHT22;6505;51.114;13.128;2023-03-31T08:44:01;18.90;60.00
12874;DHT22;6505;51.114;13.128;2023-03-31T08:46:33;18.80;60.10
12874;DHT22;6505;51.114;13.128;2023-03-31T08:49:03;18.80;60.40
12874;DHT22;6505;51.114;13.128;2023-03-31T08:51:35;18.80;60.70
12874;DHT22;6505;51.114;13.128;2023-03-31T08:54:13;18.80;60.20
12874;DHT22;6505;51.114;13.128;2023-03-31T08:56:47;18.80;60.60
12874;DHT22;6505;51.114;13.128;2023-03-31T08:59:20;18.70;60.70
12874;DHT22;6505;51.114;13.128;2023-03-31T09:02:00;18.70;60.90
12874;DHT22;6505;51.114;13.128;2023-03-31T09:04:57;18.70;60.80
12874;DHT22;6505;51.114;13.128;2023-03-31T09:07:39;18.70;60.90
12874;DHT22;6505;51.114;13.128;2023-03-31T09:10:37;18.70;60.90
12874;DHT22;6505;51.114;13.128;2023-03-31T09:13:22;18.70;61.00
12874;DHT22;6505;51.114;13.128;2023-03-31T09:16:07;18.70;60.80
12874;DHT22;6505;51.114;13.128;2023-03-31T09:18:43;18.70;60.80
12874;DHT22;6505;51.114;13.128;2023-03-31T09:21:18;18.70;60.70
12874;DHT22;6505;51.114;13.128;2023-03-31T09:23:52;18.70;60.80
12874;DHT22;6505;51.114;13.128;2023-03-31T09:26:31;18.60;60.70
12874;DHT22;6505;51.114;13.128;2023-03-31T09:29:09;18.60;61.00
12874;DHT22;6505;51.114;13.128;2023-03-31T09:31:44;18.70;61.20
12874;DHT22;6505;51.114;13.128;2023-03-31T09:34:16;18.60;60.90
12874;DHT22;6505;51.114;13.128;2023-03-31T09:36:50;18.60;60.70
12874;DHT22;6505;51.114;13.128;2023-03-31T09:39:19;18.70;60.70
12874;DHT22;6505;51.114;13.128;2023-03-31T09:41:48;18.60;60.50
12874;DHT22;6505;51.114;13.128;2023-03-31T09:44:25;18.60;60.60
12874;DHT22;6505;51.114;13.128;2023-03-31T09:46:58;18.60;60.60
12874;DHT22;6505;51.114;13.128;2023-03-31T09:49:33;18.60;60.80
12874;DHT22;6505;51.114;13.128;2023-03-31T09:52:05;18.60;60.70
12874;DHT22;6505;51.114;13.128;2023-03-31T09:54:45;18.60;60.90
12874;DHT22;6505;51.114;13.128;2023-03-31T09:57:23;18.60;61.00
12874;DHT22;6505;51.114;13.128;2023-03-31T10:00:02;18.60;60.90
12874;DHT22;6505;51.114;13.128;2023-03-31T10:02:41;18.60;61.10
12874;DHT22;6505;51.114;13.128;2023-03-31T10:05:28;18.70;61.20
12874;DHT22;6505;51.114;13.128;2023-03-31T10:08:18;18.60;61.10
12874;DHT22;6505;51.114;13.128;2023-03-31T10:10:51;18.60;61.30
12874;DHT22;6505;51.114;13.128;2023-03-31T10:13:23;18.60;61.40
12874;DHT22;6505;51.114;13.128;2023-03-31T10:15:54;18.60;61.30
12874;DHT22;6505;51.114;13.128;2023-03-31T10:18:32;18.60;61.60
12874;DHT22;6505;51.114;13.128;2023-03-31T10:21:04;18.70;61.80
12874;DHT22;6505;51.114;13.128;2023-03-31T10:23:34;18.70;61.60
12874;DHT22;6505;51.114;13.128;2023-03-31T10:26:03;18.70;61.70
12874;DHT22;6505;51.114;13.128;2023-03-31T10:28:33;18.70;61.60
12874;DHT22;6505;51.114;13.128;2023-03-31T10:31:03;18.70;61.70
12874;DHT22;6505;51.114;13.128;2023-03-31T10:33:33;18.70;61.50
12874;DHT22;6505;51.114;13.128;2023-03-31T10:36:16;18.70;61.60
12874;DHT22;6505;51.114;13.128;2023-03-31T10:38:48;18.70;61.80
12874;DHT22;6505;51.114;13.128;2023-03-31T10:41:19;18.60;62.60
12874;DHT22;6505;51.114;13.128;2023-03-31T10:43:50;18.60;61.80
12874;DHT22;6505;51.114;13.128;2023-03-31T10:46:20;18.60;61.50
12874;DHT22;6505;51.114;13.128;2023-03-31T10:49:14;18.70;61.60
12874;DHT22;6505;51.114;13.128;2023-03-31T10:51:53;18.70;61.90
12874;DHT22;6505;51.114;13.128;2023-03-31T10:54:22;18.60;62.00
12874;DHT22;6505;51.114;13.128;2023-03-31T10:56:51;18.70;61.80
12874;DHT22;6505;51.114;13.128;2023-03-31T10:59:35;18.70;62.00
12874;DHT22;6505;51.114;13.128;2023-03-31T11:02:39;18.60;62.20
12874;DHT22;6505;51.114;13.128;2023-03-31T11:05:31;18.70;62.40
12874;DHT22;6505;51.114;13.128;2023-03-31T11:08:20;18.60;61.90
12874;DHT22;6505;51.114;13.128;2023-03-31T11:11:12;18.60;62.10
12874;DHT22;6505;51.114;13.128;2023-03-31T11:13:56;18.60;62.20
12874;DHT22;6505;51.114;13.128;2023-03-31T11:16:35;18.60;62.20
12874;DHT22;6505;51.114;13.128;2023-03-31T11:19:22;18.60;62.20
12874;DHT22;6505;51.114;13.128;2023-03-31T11:22:00;18.60;62.50
12874;DHT22;6505;51.114;13.128;2023-03-31T11:24:48;18.60;62.40
12874;DHT22;6505;51.114;13.128;2023-03-31T11:27:40;18.60;62.20
12874;DHT22;6505;51.114;13.128;2023-03-31T11:30:29;18.60;62.50
12874;DHT22;6505;51.114;13.128;2023-03-31T11:33:14;18.60;62.40
12874;DHT22;6505;51.114;13.128;2023-03-31T11:36:06;18.60;62.80
12874;DHT22;6505;51.114;13.128;2023-03-31T11:38:51;18.50;63.10
12874;DHT22;6505;51.114;13.128;2023-03-31T11:41:33;18.50;63.00
12874;DHT22;6505;51.114;13.128;2023-03-31T11:44:07;18.50;63.10
12874;DHT22;6505;51.114;13.128;2023-03-31T11:46:40;18.50;63.10
12874;DHT22;6505;51.114;13.128;2023-03-31T11:49:17;18.50;63.40
12874;DHT22;6505;51.114;13.128;2023-03-31T11:51:52;18.50;63.30
12874;DHT22;6505;51.114;13.128;2023-03-31T11:54:27;18.50;63.00
12874;DHT22;6505;51.114;13.128;2023-03-31T11:57:02;18.40;62.80
12874;DHT22;6505;51.114;13.128;2023-03-31T11:59:48;18.40;62.80
12874;DHT22;6505;51.114;13.128;2023-03-31T12:02:28;18.40;62.70
12874;DHT22;6505;51.114;13.128;2023-03-31T12:05:08;18.50;62.80
12874;DHT22;6505;51.114;13.128;2023-03-31T12:07:41;18.30;63.50
12874;DHT22;6505;51.114;13.128;2023-03-31T12:10:18;18.40;63.20
12874;DHT22;6505;51.114;13.128;2023-03-31T12:12:53;18.30;63.00
12874;DHT22;6505;51.114;13.128;2023-03-31T12:15:31;18.30;63.10
12874;DHT22;6505;51.114;13.128;2023-03-31T12:18:10;18.40;63.20
12874;DHT22;6505;51.114;13.128;2023-03-31T12:20:43;18.30;63.10
12874;DHT22;6505;51.114;13.128;2023-03-31T12:23:17;18.30;63.10
12874;DHT22;6505;51.114;13.128;2023-03-31T12:25:51;18.30;63.10
12874;DHT22;6505;51.114;13.128;2023-03-31T12:28:26;18.30;63.10
12874;DHT22;6505;51.114;13.128;2023-03-31T12:30:56;18.30;63.10
12874;DHT22;6505;51.114;13.128;2023-03-31T12:33:30;18.30;63.10
12874;DHT22;6505;51.114;13.128;2023-03-31T12:36:12;18.20;63.20
12874;DHT22;6505;51.114;13.128;2023-03-31T12:38:56;18.30;63.40
12874;DHT22;6505;51.114;13.128;2023-03-31T12:41:43;18.20;63.30
12874;DHT22;6505;51.114;13.128;2023-03-31T12:44:30;18.20;63.10
12874;DHT22;6505;51.114;13.128;2023-03-31T12:47:19;18.20;63.30
12874;DHT22;6505;51.114;13.128;2023-03-31T12:50:12;18.30;63.60
12874;DHT22;6505;51.114;13.128;2023-03-31T12:52:58;18.30;63.80
12874;DHT22;6505;51.114;13.128;2023-03-31T12:55:35;18.20;63.70
12874;DHT22;6505;51.114;13.128;2023-03-31T12:58:38;18.20;64.00
12874;DHT22;6505;51.114;13.128;2023-03-31T13:01:12;18.20;64.40
12874;DHT22;6505;51.114;13.128;2023-03-31T13:03:48;18.20;64.30
12874;DHT22;6505;51.114;13.128;2023-03-31T13:06:49;18.20;64.50
12874;DHT22;6505;51.114;13.128;2023-03-31T13:09:39;18.20;64.60
12874;DHT22;6505;51.114;13.128;2023-03-31T13:12:17;18.10;64.10
12874;DHT22;6505;51.114;13.128;2023-03-31T13:14:49;18.10;64.30
12874;DHT22;6505;51.114;13.128;2023-03-31T13:17:23;18.10;64.50
12874;DHT22;6505;51.114;13.128;2023-03-31T13:20:15;18.10;64.40
12874;DHT22;6505;51.114;13.128;2023-03-31T13:22:58;18.10;64.90
12874;DHT22;6505;51.114;13.128;2023-03-31T13:25:36;18.10;64.80
12874;DHT22;6505;51.114;13.128;2023-03-31T13:28:17;18.10;64.80
12874;DHT22;6505;51.114;13.128;2023-03-31T13:31:05;18.10;64.40
12874;DHT22;6505;51.114;13.128;2023-03-31T13:33:39;18.10;64.10
12874;DHT22;6505;51.114;13.128;2023-03-31T13:39:35;18.10;64.40
12874;DHT22;6505;51.114;13.128;2023-03-31T13:42:36;18.10;64.00
12874;DHT22;6505;51.114;13.128;2023-03-31T13:45:31;18.10;64.20
12874;DHT22;6505;51.114;13.128;2023-03-31T13:48:26;18.10;64.10
12874;DHT22;6505;51.114;13.128;2023-03-31T13:51:25;18.10;64.20
12874;DHT22;6505;51.114;13.128;2023-03-31T13:54:32;18.10;64.00
12874;DHT22;6505;51.114;13.128;2023-03-31T13:57:34;18.10;63.90
12874;DHT22;6505;51.114;13.128;2023-03-31T14:00:35;18.10;63.30
12874;DHT22;6505;51.114;13.128;2023-03-31T14:03:36;18.10;63.70
12874;DHT22;6505;51.114;13.128;2023-03-31T14:06:24;18.10;63.80
12874;DHT22;6505;51.114;13.128;2023-03-31T14:09:00;18.10;63.70
12874;DHT22;6505;51.114;13.128;2023-03-31T14:11:32;18.10;63.70
12874;DHT22;6505;51.114;13.128;2023-03-31T14:14:02;18.10;63.70
12874;DHT22;6505;51.114;13.128;2023-03-31T14:16:35;18.10;63.60
12874;DHT22;6505;51.114;13.128;2023-03-31T14:19:34;18.10;63.80
12874;DHT22;6505;51.114;13.128;2023-03-31T14:22:21;18.10;63.90
12874;DHT22;6505;51.114;13.128;2023-03-31T14:25:07;18.10;63.90
12874;DHT22;6505;51.114;13.128;2023-03-31T14:27:52;18.20;63.90
12874;DHT22;6505;51.114;13.128;2023-03-31T14:30:35;18.20;63.90
12874;DHT22;6505;51.114;13.128;2023-03-31T14:33:20;18.20;63.80
12874;DHT22;6505;51.114;13.128;2023-03-31T14:35:57;18.20;62.90
12874;DHT22;6505;51.114;13.128;2023-03-31T14:38:35;18.30;62.70
12874;DHT22;6505;51.114;13.128;2023-03-31T14:41:03;18.30;62.20
12874;DHT22;6505;51.114;13.128;2023-03-31T14:43:34;18.20;62.20
12874;DHT22;6505;51.114;13.128;2023-03-31T14:46:07;18.20;62.40
12874;DHT22;6505;51.114;13.128;2023-03-31T14:48:42;18.20;62.20
12874;DHT22;6505;51.114;13.128;2023-03-31T14:51:14;18.20;62.10
12874;DHT22;6505;51.114;13.128;2023-03-31T14:53:44;18.20;62.60
12874;DHT22;6505;51.114;13.128;2023-03-31T14:56:14;18.20;62.50
12874;DHT22;6505;51.114;13.128;2023-03-31T14:58:49;18.20;62.50
12874;DHT22;6505;51.114;13.128;2023-03-31T15:01:24;18.10;62.70
12874;DHT22;6505;51.114;13.128;2023-03-31T15:03:56;18.10;62.70
12874;DHT22;6505;51.114;13.128;2023-03-31T15:06:24;18.10;62.60
12874;DHT22;6505;51.114;13.128;2023-03-31T15:08:56;18.10;62.70
12874;DHT22;6505;51.114;13.128;2023-03-31T15:11:29;18.10;62.90
12874;DHT22;6505;51.114;13.128;2023-03-31T15:13:58;18.10;62.90
12874;DHT22;6505;51.114;13.128;2023-03-31T15:16:34;18.10;62.80
12874;DHT22;6505;51.114;13.128;2023-03-31T15:19:13;18.10;63.40
12874;DHT22;6505;51.114;13.128;2023-03-31T15:21:43;18.10;63.50
12874;DHT22;6505;51.114;13.128;2023-03-31T15:24:13;18.10;63.40
12874;DHT22;6505;51.114;13.128;2023-03-31T15:26:44;18.10;63.30
12874;DHT22;6505;51.114;13.128;2023-03-31T15:29:18;18.10;63.40
12874;DHT22;6505;51.114;13.128;2023-03-31T15:31:48;18.10;63.80
12874;DHT22;6505;51.114;13.128;2023-03-31T15:34:21;18.10;63.80
12874;DHT22;6505;51.114;13.128;2023-03-31T15:36:54;18.10;63.80
12874;DHT22;6505;51.114;13.128;2023-03-31T15:39:26;18.10;63.60
12874;DHT22;6505;51.114;13.128;2023-03-31T15:41:57;18.10;62.90
12874;DHT22;6505;51.114;13.128;2023-03-31T15:44:33;18.10;63.00
12874;DHT22;6505;51.114;13.128;2023-03-31T15:47:11;18.10;62.90
12874;DHT22;6505;51.114;13.128;2023-03-31T15:49:48;18.10;62.80
12874;DHT22;6505;51.114;13.128;2023-03-31T15:52:21;18.10;62.50
12874;DHT22;6505;51.114;13.128;2023-03-31T15:54:54;18.10;62.20
12874;DHT22;6505;51.114;13.128;2023-03-31T15:57:31;18.10;62.20
12874;DHT22;6505;51.114;13.128;2023-03-31T16:00:01;18.10;62.10
12874;DHT22;6505;51.114;13.128;2023-03-31T16:02:42;18.00;61.80
12874;DHT22;6505;51.114;13.128;2023-03-31T16:05:23;18.10;61.90
12874;DHT22;6505;51.114;13.128;2023-03-31T16:08:22;18.10;61.70
12874;DHT22;6505;51.114;13.128;2023-03-31T16:10:58;18.10;61.80
12874;DHT22;6505;51.114;13.128;2023-03-31T16:13:30;18.00;61.80
12874;DHT22;6505;51.114;13.128;2023-03-31T16:15:59;18.10;61.80
12874;DHT22;6505;51.114;13.128;2023-03-31T16:18:31;18.00;61.90
12874;DHT22;6505;51.114;13.128;2023-03-31T16:21:04;18.00;62.10
12874;DHT22;6505;51.114;13.128;2023-03-31T16:23:37;18.00;62.40
12874;DHT22;6505;51.114;13.128;2023-03-31T16:26:08;17.90;62.10
12874;DHT22;6505;51.114;13.128;2023-03-31T16:28:37;17.90;61.70
12874;DHT22;6505;51.114;13.128;2023-03-31T16:31:30;17.90;61.70
12874;DHT22;6505;51.114;13.128;2023-03-31T16:34:02;17.90;62.20